createdAt,value
2016-03-27T00:00:59.798Z,12.65
2016-03-27T00:01:59.769Z,12.62
2016-03-27T00:02:59.741Z,12.62
2016-03-27T00:03:59.728Z,12.62
2016-03-27T00:04:59.700Z,12.6
2016-03-27T00:05:59.671Z,12.64
2016-03-27T00:06:59.643Z,12.61
2016-03-27T00:07:59.630Z,12.53
2016-03-27T00:08:59.602Z,12.58
2016-03-27T00:09:59.588Z,12.54
2016-03-27T00:10:59.560Z,12.57
2016-03-27T00:11:59.532Z,12.54
2016-03-27T00:12:59.518Z,12.61
2016-03-27T00:13:59.505Z,12.6
2016-03-27T00:14:59.476Z,12.58
2016-03-27T00:15:59.448Z,12.58
2016-03-27T00:16:59.419Z,12.55
2016-03-27T00:17:59.401Z,12.54
2016-03-27T00:18:59.358Z,12.54
2016-03-27T00:19:59.314Z,12.5
2016-03-27T00:20:59.333Z,12.57
2016-03-27T00:21:59.243Z,12.58
2016-03-27T00:22:59.218Z,12.55
2016-03-27T00:23:59.184Z,12.61
2016-03-27T00:24:59.150Z,12.61
2016-03-27T00:25:59.132Z,12.62
2016-03-27T00:26:59.098Z,12.58
2016-03-27T00:27:59.081Z,12.58
2016-03-27T00:28:59.065Z,12.58
2016-03-27T00:29:59.035Z,12.61
2016-03-27T00:30:59.004Z,12.6
2016-03-27T00:31:58.974Z,12.68
2016-03-27T00:32:58.958Z,12.7
2016-03-27T00:33:58.929Z,12.7
2016-03-27T00:34:58.899Z,12.7
2016-03-27T00:35:58.886Z,12.7
2016-03-27T00:36:58.856Z,12.76
2016-03-27T00:37:58.843Z,12.76
2016-03-27T00:38:58.815Z,12.76
2016-03-27T00:39:58.786Z,12.85
2016-03-27T00:40:58.773Z,12.78
2016-03-27T00:41:58.745Z,12.83
2016-03-27T00:42:58.747Z,12.78
2016-03-27T00:43:58.704Z,12.79
2016-03-27T00:44:58.690Z,12.85
2016-03-27T00:45:58.661Z,12.83
2016-03-27T00:46:58.633Z,12.87
2016-03-27T00:47:58.620Z,12.9
2016-03-27T00:48:58.607Z,12.91
2016-03-27T00:49:58.578Z,12.93
2016-03-27T00:50:58.550Z,12.85
2016-03-27T00:51:58.537Z,12.85
2016-03-27T00:52:58.509Z,12.94
2016-03-27T00:53:58.495Z,12.97
2016-03-27T00:54:58.450Z,12.87
2016-03-27T00:55:58.439Z,12.98
2016-03-27T00:56:58.410Z,12.97
2016-03-27T00:57:58.397Z,12.9
2016-03-27T00:58:58.369Z,12.95
2016-03-27T00:59:58.355Z,12.91
2016-03-27T01:00:58.327Z,12.97
2016-03-27T01:01:58.299Z,13.04
2016-03-27T01:02:58.285Z,13.08
2016-03-27T01:03:58.257Z,12.98
2016-03-27T01:04:58.244Z,13.03
2016-03-27T01:05:58.215Z,13.05
2016-03-27T01:06:58.188Z,13.08
2016-03-27T01:07:58.162Z,13.08
2016-03-27T01:08:58.149Z,13.13
2016-03-27T01:09:58.120Z,13.18
2016-03-27T01:10:58.108Z,13.12
2016-03-27T01:11:58.078Z,13.22
2016-03-27T01:12:58.067Z,13.16
2016-03-27T01:13:58.038Z,13.22
2016-03-27T01:14:58.040Z,13.28
2016-03-27T01:15:57.997Z,13.31
2016-03-27T01:16:57.983Z,13.37
2016-03-27T01:17:57.954Z,13.38
2016-03-27T01:18:57.927Z,13.47
2016-03-27T01:19:57.913Z,13.39
2016-03-27T01:20:57.885Z,13.53
2016-03-27T01:21:57.856Z,13.56
2016-03-27T01:22:57.843Z,13.62
2016-03-27T01:23:57.815Z,13.57
2016-03-27T01:24:57.802Z,13.65
2016-03-27T01:25:57.788Z,13.6
2016-03-27T01:26:57.759Z,13.6
2016-03-27T01:27:57.747Z,13.67
2016-03-27T01:28:57.703Z,13.65
2016-03-27T01:29:57.706Z,13.65
2016-03-27T01:30:57.662Z,13.57
2016-03-27T01:31:57.648Z,13.71
2016-03-27T01:32:57.635Z,13.72
2016-03-27T01:33:57.607Z,13.71
2016-03-27T01:34:57.578Z,13.68
2016-03-27T01:35:57.565Z,13.67
2016-03-27T01:36:57.537Z,13.71
2016-03-27T01:37:57.523Z,13.71
2016-03-27T01:38:57.495Z,13.75
2016-03-27T01:39:57.483Z,13.75
2016-03-27T01:40:57.454Z,13.78
2016-03-27T01:41:57.442Z,13.78
2016-03-27T01:42:57.412Z,13.86
2016-03-27T01:43:57.399Z,13.83
2016-03-27T01:44:57.371Z,13.81
2016-03-27T01:45:57.358Z,13.79
2016-03-27T01:46:57.330Z,13.86
2016-03-27T01:47:57.300Z,13.86
2016-03-27T01:48:57.288Z,13.96
2016-03-27T01:49:57.260Z,13.89
2016-03-27T01:50:57.247Z,13.9
2016-03-27T01:51:57.218Z,13.93
2016-03-27T01:52:57.205Z,13.87
2016-03-27T01:53:57.177Z,13.89
2016-03-27T01:54:57.163Z,13.92
2016-03-27T01:55:57.135Z,13.92
2016-03-27T01:56:57.122Z,13.9
2016-03-27T01:57:57.093Z,13.93
2016-03-27T01:58:57.096Z,13.86
2016-03-27T01:59:57.052Z,13.87
2016-03-27T02:00:57.039Z,13.87
2016-03-27T02:01:57.104Z,13.86
2016-03-27T02:02:56.998Z,13.87
2016-03-27T02:03:56.968Z,13.87
2016-03-27T02:04:56.941Z,13.83
2016-03-27T02:05:56.928Z,13.74
2016-03-27T02:06:56.923Z,13.75
2016-03-27T02:07:56.788Z,13.78
2016-03-27T02:08:56.865Z,13.77
2016-03-27T02:09:57.414Z,13.77
2016-03-27T02:10:57.318Z,13.72
2016-03-27T02:11:56.806Z,13.71
2016-03-27T02:12:56.792Z,13.77
2016-03-27T02:13:56.765Z,13.74
2016-03-27T02:14:56.736Z,13.6
2016-03-27T02:15:56.706Z,13.59
2016-03-27T02:16:56.756Z,13.57
2016-03-27T02:17:56.666Z,13.65
2016-03-27T02:18:56.653Z,13.6
2016-03-27T02:19:56.625Z,13.65
2016-03-27T02:20:56.611Z,13.57
2016-03-27T02:21:56.598Z,13.49
2016-03-27T02:22:56.570Z,13.57
2016-03-27T02:23:56.541Z,13.49
2016-03-27T02:24:56.527Z,13.44
2016-03-27T02:25:56.499Z,13.46
2016-03-27T02:26:56.486Z,13.44
2016-03-27T02:27:56.458Z,13.41
2016-03-27T02:28:56.430Z,13.46
2016-03-27T02:29:56.416Z,13.39
2016-03-27T02:30:56.404Z,13.39
2016-03-27T02:31:56.469Z,13.42
2016-03-27T02:32:56.346Z,13.27
2016-03-27T02:33:56.162Z,13.31
2016-03-27T02:34:56.304Z,13.35
2016-03-27T02:35:56.293Z,13.33
2016-03-27T02:36:56.263Z,13.2
2016-03-27T02:37:56.235Z,13.2
2016-03-27T02:38:56.223Z,13.23
2016-03-27T02:39:56.193Z,13.2
2016-03-27T02:40:56.181Z,13.2
2016-03-27T02:41:56.152Z,13.2
2016-03-27T02:42:56.139Z,13.2
2016-03-27T02:43:56.111Z,13.15
2016-03-27T02:44:56.081Z,13.15
2016-03-27T02:45:56.069Z,13.19
2016-03-27T02:46:56.025Z,13.16
2016-03-27T02:47:56.028Z,13.2
2016-03-27T02:48:55.999Z,13.13
2016-03-27T02:49:55.970Z,13.19
2016-03-27T02:50:55.958Z,13.18
2016-03-27T02:51:55.928Z,13.15
2016-03-27T02:52:55.916Z,13.18
2016-03-27T02:53:55.888Z,13.19
2016-03-27T02:54:55.874Z,13.15
2016-03-27T02:55:55.846Z,13.15
2016-03-27T02:56:55.833Z,13.12
2016-03-27T02:57:55.819Z,13.13
2016-03-27T02:58:55.792Z,13.09
2016-03-27T02:59:55.763Z,13.08
2016-03-27T03:00:55.734Z,13.12
2016-03-27T03:01:55.738Z,13.08
2016-03-27T03:02:55.693Z,13.03
2016-03-27T03:03:55.665Z,13.03
2016-03-27T03:04:55.652Z,13.12
2016-03-27T03:05:55.623Z,13.03
2016-03-27T03:06:55.610Z,13.04
2016-03-27T03:07:55.582Z,13.05
2016-03-27T03:08:55.568Z,13.16
2016-03-27T03:09:55.539Z,13.18
2016-03-27T03:10:55.527Z,13.13
2016-03-27T03:11:55.514Z,13.15
2016-03-27T03:12:55.470Z,13.2
2016-03-27T03:13:55.457Z,13.16
2016-03-27T03:14:55.428Z,13.18
2016-03-27T03:15:55.415Z,13.2
2016-03-27T03:16:55.387Z,13.23
2016-03-27T03:17:55.373Z,13.2
2016-03-27T03:18:55.345Z,13.22
2016-03-27T03:19:55.317Z,13.28
2016-03-27T03:20:55.303Z,13.2
2016-03-27T03:21:55.276Z,13.35
2016-03-27T03:22:55.262Z,13.33
2016-03-27T03:23:55.233Z,13.27
2016-03-27T03:24:55.222Z,13.31
2016-03-27T03:25:55.208Z,13.35
2016-03-27T03:26:55.180Z,13.37
2016-03-27T03:27:55.150Z,13.33
2016-03-27T03:28:55.122Z,13.35
2016-03-27T03:29:55.093Z,13.38
2016-03-27T03:30:55.081Z,13.37
2016-03-27T03:31:55.068Z,13.39
2016-03-27T03:32:55.038Z,13.31
2016-03-27T03:33:55.011Z,13.31
2016-03-27T03:34:54.998Z,13.37
2016-03-27T03:35:54.968Z,13.39
2016-03-27T03:36:54.957Z,13.41
2016-03-27T03:37:54.943Z,13.37
2016-03-27T03:38:54.915Z,13.37
2016-03-27T03:39:54.902Z,13.44
2016-03-27T03:40:54.873Z,13.31
2016-03-27T03:41:54.845Z,13.3
2016-03-27T03:42:54.816Z,13.39
2016-03-27T03:43:54.803Z,13.33
2016-03-27T03:44:54.775Z,13.39
2016-03-27T03:45:54.762Z,13.42
2016-03-27T03:46:54.733Z,13.44
2016-03-27T03:47:54.720Z,13.44
2016-03-27T03:48:54.692Z,13.5
2016-03-27T03:49:54.678Z,13.42
2016-03-27T03:50:54.650Z,13.35
2016-03-27T03:51:54.637Z,13.44
2016-03-27T03:52:54.608Z,13.41
2016-03-27T03:53:54.580Z,13.41
2016-03-27T03:54:54.567Z,13.42
2016-03-27T03:55:54.538Z,13.41
2016-03-27T03:56:54.526Z,13.46
2016-03-27T03:57:54.513Z,13.44
2016-03-27T03:58:54.484Z,13.47
2016-03-27T03:59:54.455Z,13.46
2016-03-27T04:00:54.427Z,13.47
2016-03-27T04:01:54.414Z,13.5
2016-03-27T04:02:54.385Z,13.52
2016-03-27T04:03:54.372Z,13.47
2016-03-27T04:04:54.360Z,13.54
2016-03-27T04:05:54.332Z,13.5
2016-03-27T04:06:54.318Z,13.62
2016-03-27T04:07:54.307Z,13.57
2016-03-27T04:08:54.262Z,13.59
2016-03-27T04:09:54.265Z,13.65
2016-03-27T04:10:54.222Z,13.65
2016-03-27T04:11:54.208Z,13.62
2016-03-27T04:12:54.180Z,13.62
2016-03-27T04:13:54.167Z,13.65
2016-03-27T04:14:54.139Z,13.63
2016-03-27T04:15:54.125Z,13.56
2016-03-27T04:16:54.113Z,13.59
2016-03-27T04:17:54.084Z,13.59
2016-03-27T04:18:54.056Z,13.72
2016-03-27T04:19:54.027Z,13.74
2016-03-27T04:20:54.029Z,13.6
2016-03-27T04:21:54.017Z,13.71
2016-03-27T04:22:53.988Z,13.7
2016-03-27T04:23:53.960Z,13.7
2016-03-27T04:24:53.931Z,13.72
2016-03-27T04:25:53.902Z,13.7
2016-03-27T04:26:53.890Z,13.79
2016-03-27T04:27:53.861Z,13.72
2016-03-27T04:28:53.832Z,13.78
2016-03-27T04:29:53.818Z,13.74
2016-03-27T04:30:53.807Z,13.77
2016-03-27T04:31:53.778Z,13.75
2016-03-27T04:32:53.765Z,13.77
2016-03-27T04:33:53.737Z,13.72
2016-03-27T04:34:53.707Z,13.75
2016-03-27T04:35:53.695Z,13.75
2016-03-27T04:36:53.667Z,13.78
2016-03-27T04:37:53.638Z,13.78
2016-03-27T04:38:53.640Z,13.79
2016-03-27T04:39:53.612Z,13.77
2016-03-27T04:40:53.598Z,13.74
2016-03-27T04:41:53.556Z,13.75
2016-03-27T04:42:53.542Z,13.85
2016-03-27T04:43:53.528Z,13.81
2016-03-27T04:44:53.500Z,13.86
2016-03-27T04:45:53.472Z,13.74
2016-03-27T04:46:53.459Z,13.85
2016-03-27T04:47:53.446Z,13.83
2016-03-27T04:48:53.417Z,13.81
2016-03-27T04:49:53.420Z,13.83
2016-03-27T04:50:53.375Z,13.74
2016-03-27T04:51:53.363Z,13.81
2016-03-27T04:52:53.335Z,13.72
2016-03-27T04:53:53.305Z,13.83
2016-03-27T04:54:53.293Z,13.75
2016-03-27T04:55:53.264Z,13.75
2016-03-27T04:56:53.235Z,13.72
2016-03-27T04:57:53.223Z,13.74
2016-03-27T04:58:53.210Z,13.7
2016-03-27T04:59:53.181Z,13.81
2016-03-27T05:00:53.168Z,13.7
2016-03-27T05:01:53.140Z,13.79
2016-03-27T05:02:53.111Z,13.72
2016-03-27T05:03:53.098Z,13.79
2016-03-27T05:04:53.070Z,13.72
2016-03-27T05:05:53.056Z,13.68
2016-03-27T05:06:52.888Z,13.7
2016-03-27T05:07:53.015Z,13.74
2016-03-27T05:08:52.987Z,13.67
2016-03-27T05:09:52.974Z,13.72
2016-03-27T05:10:52.945Z,13.72
2016-03-27T05:11:52.932Z,13.7
2016-03-27T05:12:52.903Z,13.68
2016-03-27T05:13:52.891Z,13.7
2016-03-27T05:14:52.861Z,13.65
2016-03-27T05:15:52.850Z,13.68
2016-03-27T05:16:52.820Z,13.7
2016-03-27T05:17:52.808Z,13.71
2016-03-27T05:18:52.780Z,13.62
2016-03-27T05:19:52.766Z,13.6
2016-03-27T05:20:52.753Z,13.68
2016-03-27T05:21:52.725Z,13.68
2016-03-27T05:22:52.696Z,13.57
2016-03-27T05:23:52.668Z,13.63
2016-03-27T05:24:52.655Z,13.6
2016-03-27T05:25:52.626Z,13.59
2016-03-27T05:26:52.614Z,13.59
2016-03-27T05:27:52.600Z,13.68
2016-03-27T05:28:52.571Z,13.6
2016-03-27T05:29:52.544Z,13.59
2016-03-27T05:30:52.530Z,13.54
2016-03-27T05:31:52.501Z,13.63
2016-03-27T05:32:52.488Z,13.59
2016-03-27T05:33:52.460Z,13.62
2016-03-27T05:34:52.448Z,13.54
2016-03-27T05:35:52.435Z,13.52
2016-03-27T05:36:52.406Z,13.5
2016-03-27T05:37:52.376Z,13.52
2016-03-27T05:38:52.349Z,13.49
2016-03-27T05:39:52.336Z,13.49
2016-03-27T05:40:52.322Z,13.49
2016-03-27T05:41:52.295Z,13.46
2016-03-27T05:42:52.265Z,13.33
2016-03-27T05:43:52.253Z,13.2
2016-03-27T05:44:52.225Z,13.15
2016-03-27T05:45:52.211Z,13.03
2016-03-27T05:46:52.183Z,12.98
2016-03-27T05:47:52.169Z,12.9
2016-03-27T05:48:52.141Z,12.82
2016-03-27T05:49:52.144Z,12.85
2016-03-27T05:50:52.116Z,12.73
2016-03-27T05:51:52.102Z,12.64
2016-03-27T05:52:52.059Z,12.61
2016-03-27T05:53:52.030Z,12.58
2016-03-27T05:54:52.016Z,12.62
2016-03-27T05:55:51.988Z,12.47
2016-03-27T05:56:51.975Z,12.54
2016-03-27T05:57:51.930Z,12.39
2016-03-27T05:58:51.918Z,12.39
2016-03-27T05:59:51.905Z,12.31
2016-03-27T06:00:51.876Z,12.28
2016-03-27T06:01:51.864Z,12.28
2016-03-27T06:02:51.835Z,12.21
2016-03-27T06:03:51.821Z,12.18
2016-03-27T06:04:51.794Z,12.12
2016-03-27T06:05:51.781Z,12.06
2016-03-27T06:06:51.751Z,12.04
2016-03-27T06:07:51.724Z,12
2016-03-27T06:08:51.695Z,11.99
2016-03-27T06:09:51.682Z,11.95
2016-03-27T06:10:51.654Z,11.87
2016-03-27T06:11:51.625Z,11.77
2016-03-27T06:12:51.612Z,11.73
2016-03-27T06:13:51.584Z,11.63
2016-03-27T06:14:51.570Z,11.59
2016-03-27T06:15:51.541Z,11.6
2016-03-27T06:16:51.529Z,11.59
2016-03-27T06:17:51.484Z,11.63
2016-03-27T06:18:51.472Z,11.55
2016-03-27T06:19:51.459Z,11.5
2016-03-27T06:20:51.430Z,11.5
2016-03-27T06:21:51.402Z,11.45
2016-03-27T06:22:51.373Z,11.36
2016-03-27T06:23:51.360Z,11.3
2016-03-27T06:24:51.332Z,11.37
2016-03-27T06:25:51.319Z,11.36
2016-03-27T06:26:51.290Z,11.29
2016-03-27T06:27:51.262Z,11.22
2016-03-27T06:28:51.233Z,11.15
2016-03-27T06:29:51.220Z,11.07
2016-03-27T06:30:51.192Z,11.04
2016-03-27T06:31:51.163Z,10.92
2016-03-27T06:32:51.149Z,10.78
2016-03-27T06:33:51.138Z,10.72
2016-03-27T06:34:51.109Z,10.67
2016-03-27T06:35:51.080Z,10.72
2016-03-27T06:36:51.051Z,10.56
2016-03-27T06:37:51.023Z,10.54
2016-03-27T06:38:51.010Z,10.57
2016-03-27T06:39:50.981Z,10.41
2016-03-27T06:40:50.968Z,10.37
2016-03-27T06:41:50.924Z,10.44
2016-03-27T06:42:50.911Z,10.35
2016-03-27T06:43:50.884Z,10.33
2016-03-27T06:44:50.854Z,10.22
2016-03-27T06:45:50.842Z,10.3
2016-03-27T06:46:50.812Z,10.3
2016-03-27T06:47:50.784Z,10.3
2016-03-27T06:48:50.772Z,10.19
2016-03-27T06:49:50.743Z,10.19
2016-03-27T06:50:50.714Z,10.17
2016-03-27T06:51:50.701Z,10.16
2016-03-27T06:52:50.672Z,10.15
2016-03-27T06:53:50.644Z,10.09
2016-03-27T06:54:50.630Z,10.13
2016-03-27T06:55:50.603Z,10.1
2016-03-27T06:56:50.574Z,10.2
2016-03-27T06:57:50.545Z,10.09
2016-03-27T06:58:50.517Z,10.07
2016-03-27T06:59:50.504Z,10.15
2016-03-27T07:00:50.475Z,10.15
2016-03-27T07:01:50.463Z,10.05
2016-03-27T07:02:50.418Z,10.12
2016-03-27T07:03:50.421Z,10.09
2016-03-27T07:04:50.393Z,10.07
2016-03-27T07:05:50.363Z,9.99
2016-03-27T07:06:50.351Z,10.01
2016-03-27T07:07:50.307Z,10.05
2016-03-27T07:08:50.294Z,10.1
2016-03-27T07:09:50.265Z,10.1
2016-03-27T07:10:50.236Z,10.12
2016-03-27T07:11:50.209Z,10.07
2016-03-27T07:12:50.195Z,10.01
2016-03-27T07:13:50.166Z,9.94
2016-03-27T07:14:50.138Z,9.98
2016-03-27T07:15:50.125Z,9.92
2016-03-27T07:16:50.097Z,9.99
2016-03-27T07:17:50.115Z,10.09
2016-03-27T07:18:50.039Z,10.1
2016-03-27T07:19:50.026Z,9.98
2016-03-27T07:20:49.998Z,10.09
2016-03-27T07:21:49.969Z,10.07
2016-03-27T07:22:49.941Z,10.1
2016-03-27T07:23:49.928Z,10.07
2016-03-27T07:24:49.900Z,10.02
2016-03-27T07:25:49.871Z,9.98
2016-03-27T07:26:49.858Z,9.99
2016-03-27T07:27:49.830Z,9.92
2016-03-27T07:28:49.817Z,9.89
2016-03-27T07:29:49.787Z,9.92
2016-03-27T07:30:49.760Z,9.95
2016-03-27T07:31:49.730Z,9.89
2016-03-27T07:32:49.765Z,9.95
2016-03-27T07:33:49.689Z,9.94
2016-03-27T07:34:49.660Z,9.91
2016-03-27T07:35:49.632Z,9.91
2016-03-27T07:36:49.619Z,9.92
2016-03-27T07:37:49.590Z,9.86
2016-03-27T07:38:49.562Z,9.94
2016-03-27T07:39:49.534Z,9.89
2016-03-27T07:40:49.520Z,9.94
2016-03-27T07:41:49.493Z,9.91
2016-03-27T07:42:49.463Z,9.87
2016-03-27T07:43:49.450Z,9.87
2016-03-27T07:44:49.423Z,9.94
2016-03-27T07:45:49.409Z,10.01
2016-03-27T07:46:49.380Z,9.87
2016-03-27T07:47:49.414Z,9.86
2016-03-27T07:48:49.323Z,9.84
2016-03-27T07:49:49.311Z,9.8
2016-03-27T07:50:49.281Z,9.76
2016-03-27T07:51:49.253Z,9.74
2016-03-27T07:52:49.240Z,9.76
2016-03-27T07:53:49.211Z,9.79
2016-03-27T07:54:49.183Z,9.77
2016-03-27T07:55:49.170Z,9.77
2016-03-27T07:56:49.125Z,9.8
2016-03-27T07:57:49.114Z,9.77
2016-03-27T07:58:49.085Z,9.76
2016-03-27T07:59:49.055Z,9.66
2016-03-27T08:00:49.044Z,9.66
2016-03-27T08:01:49.014Z,9.77
2016-03-27T08:02:49.001Z,9.72
2016-03-27T08:03:48.957Z,9.69
2016-03-27T08:04:48.944Z,9.69
2016-03-27T08:05:48.915Z,9.64
2016-03-27T08:06:48.888Z,9.62
2016-03-27T08:07:48.874Z,9.65
2016-03-27T08:08:48.845Z,9.59
2016-03-27T08:09:48.818Z,9.55
2016-03-27T08:10:48.788Z,9.59
2016-03-27T08:11:48.775Z,9.62
2016-03-27T08:12:48.748Z,9.5
2016-03-27T08:13:48.734Z,9.55
2016-03-27T08:14:48.706Z,9.51
2016-03-27T08:15:48.677Z,9.54
2016-03-27T08:16:48.648Z,9.43
2016-03-27T08:17:48.620Z,9.43
2016-03-27T08:18:48.592Z,9.47
2016-03-27T08:19:48.578Z,9.47
2016-03-27T08:20:48.550Z,9.43
2016-03-27T08:21:48.522Z,9.41
2016-03-27T08:22:48.493Z,9.37
2016-03-27T08:23:48.480Z,9.36
2016-03-27T08:24:48.467Z,9.34
2016-03-27T08:25:48.438Z,9.34
2016-03-27T08:26:48.410Z,9.46
2016-03-27T08:27:48.381Z,9.5
2016-03-27T08:28:48.352Z,9.5
2016-03-27T08:29:48.324Z,9.48
2016-03-27T08:30:48.296Z,9.5
2016-03-27T08:31:48.283Z,9.5
2016-03-27T08:32:48.269Z,9.47
2016-03-27T08:33:48.225Z,9.46
2016-03-27T08:34:48.213Z,9.43
2016-03-27T08:35:48.184Z,9.46
2016-03-27T08:36:48.155Z,9.46
2016-03-27T08:37:48.143Z,9.44
2016-03-27T08:38:48.113Z,9.46
2016-03-27T08:39:48.102Z,9.4
2016-03-27T08:40:48.073Z,9.31
2016-03-27T08:41:48.043Z,9.36
2016-03-27T08:42:47.859Z,9.29
2016-03-27T08:43:47.987Z,9.26
2016-03-27T08:44:47.973Z,9.28
2016-03-27T08:45:48.007Z,9.26
2016-03-27T08:46:47.917Z,9.23
2016-03-27T08:47:47.887Z,9.19
2016-03-27T08:48:47.876Z,9.26
2016-03-27T08:49:47.847Z,9.23
2016-03-27T08:50:47.817Z,9.22
2016-03-27T08:51:47.790Z,9.23
2016-03-27T08:52:47.792Z,9.22
2016-03-27T08:53:47.747Z,9.19
2016-03-27T08:54:47.720Z,9.22
2016-03-27T08:55:47.706Z,9.22
2016-03-27T08:56:47.678Z,9.26
2016-03-27T08:57:47.650Z,9.26
2016-03-27T08:58:47.621Z,9.28
2016-03-27T08:59:47.467Z,9.25
2016-03-27T09:00:47.579Z,9.36
2016-03-27T09:01:47.550Z,9.37
2016-03-27T09:02:47.522Z,9.41
2016-03-27T09:03:47.509Z,9.44
2016-03-27T09:04:47.481Z,9.48
2016-03-27T09:05:47.452Z,9.47
2016-03-27T09:06:47.439Z,9.46
2016-03-27T09:07:47.424Z,9.56
2016-03-27T09:08:47.396Z,9.59
2016-03-27T09:09:47.367Z,9.59
2016-03-27T09:10:47.354Z,9.65
2016-03-27T09:11:47.310Z,9.66
2016-03-27T09:12:47.282Z,9.68
2016-03-27T09:13:47.253Z,9.73
2016-03-27T09:14:47.240Z,9.72
2016-03-27T09:15:47.211Z,9.72
2016-03-27T09:16:47.199Z,9.69
2016-03-27T09:17:47.170Z,9.82
2016-03-27T09:18:47.141Z,9.82
2016-03-27T09:19:47.129Z,9.76
2016-03-27T09:20:47.146Z,9.87
2016-03-27T09:21:47.072Z,9.89
2016-03-27T09:22:47.059Z,9.95
2016-03-27T09:23:47.025Z,9.89
2016-03-27T09:24:47.001Z,9.95
2016-03-27T09:25:46.959Z,9.94
2016-03-27T09:26:46.919Z,10.04
2016-03-27T09:27:46.895Z,10.13
2016-03-27T09:28:46.857Z,10.01
2016-03-27T09:29:46.825Z,10.22
2016-03-27T09:30:46.807Z,10.22
2016-03-27T09:31:46.774Z,10.26
2016-03-27T09:32:46.758Z,10.23
2016-03-27T09:33:46.725Z,10.35
2016-03-27T09:34:46.695Z,10.3
2016-03-27T09:35:46.680Z,10.35
2016-03-27T09:36:46.651Z,10.42
2016-03-27T09:37:46.637Z,10.56
2016-03-27T09:38:46.607Z,10.59
2016-03-27T09:39:46.594Z,10.68
2016-03-27T09:40:46.564Z,10.61
2016-03-27T09:41:46.536Z,10.69
2016-03-27T09:42:46.506Z,10.75
2016-03-27T09:43:46.492Z,10.71
2016-03-27T09:44:46.480Z,10.81
2016-03-27T09:45:46.450Z,10.89
2016-03-27T09:46:46.422Z,10.92
2016-03-27T09:47:46.409Z,10.99
2016-03-27T09:48:46.395Z,10.96
2016-03-27T09:49:46.382Z,11.07
2016-03-27T09:50:46.338Z,11.1
2016-03-27T09:51:46.326Z,11.14
2016-03-27T09:52:46.297Z,11.26
2016-03-27T09:53:46.284Z,11.3
2016-03-27T09:54:46.270Z,11.33
2016-03-27T09:55:46.243Z,11.36
2016-03-27T09:56:46.229Z,11.3
2016-03-27T09:57:46.200Z,11.44
2016-03-27T09:58:46.173Z,11.51
2016-03-27T09:59:46.159Z,11.44
2016-03-27T10:00:46.130Z,11.41
2016-03-27T10:01:46.118Z,11.32
2016-03-27T10:02:46.089Z,11.52
2016-03-27T10:03:46.077Z,11.51
2016-03-27T10:04:46.064Z,11.54
2016-03-27T10:05:46.035Z,11.43
2016-03-27T10:06:46.006Z,11.54
2016-03-27T10:07:45.994Z,11.55
2016-03-27T10:08:45.980Z,11.54
2016-03-27T10:09:45.952Z,11.59
2016-03-27T10:10:45.939Z,11.52
2016-03-27T10:11:45.910Z,11.65
2016-03-27T10:12:45.897Z,11.68
2016-03-27T10:13:45.869Z,11.73
2016-03-27T10:14:45.856Z,11.73
2016-03-27T10:15:45.827Z,11.81
2016-03-27T10:16:45.815Z,11.88
2016-03-27T10:17:45.785Z,11.83
2016-03-27T10:18:45.773Z,11.77
2016-03-27T10:19:45.760Z,11.77
2016-03-27T10:20:45.731Z,11.81
2016-03-27T10:21:45.719Z,11.7
2016-03-27T10:22:45.690Z,11.72
2016-03-27T10:23:45.661Z,11.73
2016-03-27T10:24:45.649Z,11.65
2016-03-27T10:25:45.620Z,11.6
2016-03-27T10:26:45.606Z,11.59
2016-03-27T10:27:45.579Z,11.55
2016-03-27T10:28:45.565Z,11.48
2016-03-27T10:29:45.553Z,11.47
2016-03-27T10:30:45.524Z,11.54
2016-03-27T10:31:45.511Z,11.5
2016-03-27T10:32:45.482Z,11.54
2016-03-27T10:33:45.470Z,11.6
2016-03-27T10:34:45.441Z,11.75
2016-03-27T10:35:45.427Z,11.73
2016-03-27T10:36:45.400Z,11.8
2016-03-27T10:37:45.386Z,11.77
2016-03-27T10:38:45.358Z,11.73
2016-03-27T10:39:45.345Z,11.94
2016-03-27T10:40:45.316Z,11.94
2016-03-27T10:41:45.304Z,11.88
2016-03-27T10:42:45.275Z,11.88
2016-03-27T10:43:45.262Z,12.18
2016-03-27T10:44:45.233Z,12.15
2016-03-27T10:45:45.252Z,12.24
2016-03-27T10:46:45.208Z,12.2
2016-03-27T10:47:45.180Z,12.2
2016-03-27T10:48:45.166Z,12.24
2016-03-27T10:49:45.137Z,12.25
2016-03-27T10:50:45.140Z,12.35
2016-03-27T10:51:45.096Z,12.4
2016-03-27T10:52:45.083Z,12.45
2016-03-27T10:53:45.070Z,12.46
2016-03-27T10:54:45.042Z,12.46
2016-03-27T10:55:45.029Z,12.53
2016-03-27T10:56:45.015Z,12.5
2016-03-27T10:57:44.987Z,12.57
2016-03-27T10:58:44.975Z,12.65
2016-03-27T10:59:44.961Z,12.7
2016-03-27T11:00:44.933Z,12.8
2016-03-27T11:01:44.904Z,12.83
2016-03-27T11:02:44.891Z,12.8
2016-03-27T11:03:44.879Z,12.87
2016-03-27T11:04:44.881Z,13.05
2016-03-27T11:05:44.836Z,13.08
2016-03-27T11:06:44.825Z,13.13
2016-03-27T11:07:44.811Z,13.16
2016-03-27T11:08:44.782Z,13.15
2016-03-27T11:09:44.769Z,13.15
2016-03-27T11:10:44.757Z,13.19
2016-03-27T11:11:44.728Z,13.2
2016-03-27T11:12:44.715Z,13.13
2016-03-27T11:13:44.702Z,13.23
2016-03-27T11:14:44.689Z,13.35
2016-03-27T11:15:44.660Z,13.33
2016-03-27T11:16:44.632Z,13.31
2016-03-27T11:17:44.619Z,13.47
2016-03-27T11:18:44.606Z,13.37
2016-03-27T11:19:44.594Z,13.37
2016-03-27T11:20:44.565Z,13.3
2016-03-27T11:21:44.551Z,13.39
2016-03-27T11:22:44.540Z,13.49
2016-03-27T11:23:44.510Z,13.47
2016-03-27T11:24:44.497Z,13.46
2016-03-27T11:25:44.468Z,13.59
2016-03-27T11:26:44.456Z,13.7
2016-03-27T11:27:44.443Z,13.74
2016-03-27T11:28:44.430Z,13.72
2016-03-27T11:29:44.401Z,13.65
2016-03-27T11:30:44.389Z,13.67
2016-03-27T11:31:44.359Z,13.7
2016-03-27T11:32:44.362Z,13.54
2016-03-27T11:33:44.334Z,13.68
2016-03-27T11:34:44.322Z,13.54
2016-03-27T11:35:44.293Z,13.56
2016-03-27T11:36:44.280Z,13.53
2016-03-27T11:37:44.266Z,13.31
2016-03-27T11:38:44.238Z,13.35
2016-03-27T11:39:44.241Z,13.41
2016-03-27T11:40:44.259Z,13.31
2016-03-27T11:41:44.183Z,13.38
2016-03-27T11:42:44.171Z,13.46
2016-03-27T11:43:44.142Z,13.49
2016-03-27T11:44:44.160Z,13.54
2016-03-27T11:45:44.116Z,13.57
2016-03-27T11:46:44.088Z,13.65
2016-03-27T11:47:44.090Z,13.63
2016-03-27T11:48:44.062Z,13.75
2016-03-27T11:49:44.049Z,13.6
2016-03-27T11:50:44.021Z,13.59
2016-03-27T11:51:44.007Z,13.65
2016-03-27T11:52:43.995Z,13.68
2016-03-27T11:53:43.966Z,13.77
2016-03-27T11:54:43.953Z,13.77
2016-03-27T11:55:43.971Z,13.78
2016-03-27T11:56:43.912Z,13.78
2016-03-27T11:57:43.899Z,13.87
2016-03-27T11:58:43.886Z,13.86
2016-03-27T11:59:43.857Z,13.86
2016-03-27T12:00:43.845Z,13.79
2016-03-27T12:01:43.847Z,13.86
2016-03-27T12:02:43.802Z,13.86
2016-03-27T12:03:44.368Z,13.93
2016-03-27T12:04:43.761Z,14.12
2016-03-27T12:05:43.764Z,14.11
2016-03-27T12:06:43.736Z,14.07
2016-03-27T12:07:43.738Z,14.08
2016-03-27T12:08:43.694Z,14.08
2016-03-27T12:09:43.681Z,14.04
2016-03-27T12:10:43.669Z,14.14
2016-03-27T12:11:43.639Z,14.12
2016-03-27T12:12:43.627Z,14.07
2016-03-27T12:13:43.597Z,14.04
2016-03-27T12:14:43.585Z,14.11
2016-03-27T12:15:43.587Z,14.08
2016-03-27T12:16:43.544Z,14.03
2016-03-27T12:17:43.530Z,14.03
2016-03-27T12:18:43.643Z,14.07
2016-03-27T12:19:43.488Z,14.03
2016-03-27T12:20:43.477Z,13.99
2016-03-27T12:21:43.463Z,14.08
2016-03-27T12:22:43.434Z,14.04
2016-03-27T12:23:43.422Z,14.14
2016-03-27T12:24:43.409Z,14.12
2016-03-27T12:25:43.379Z,14.12
2016-03-27T12:26:43.367Z,14.11
2016-03-27T12:27:43.354Z,14.11
2016-03-27T12:28:43.342Z,14.08
2016-03-27T12:29:43.312Z,14.05
2016-03-27T12:30:43.284Z,14.03
2016-03-27T12:31:43.271Z,13.93
2016-03-27T12:32:43.242Z,13.89
2016-03-27T12:33:43.355Z,13.97
2016-03-27T12:34:43.217Z,13.96
2016-03-27T12:35:43.189Z,13.93
2016-03-27T12:36:43.175Z,14.07
2016-03-27T12:37:43.162Z,14.03
2016-03-27T12:38:43.134Z,13.99
2016-03-27T12:39:43.121Z,13.95
2016-03-27T12:40:43.108Z,13.92
2016-03-27T12:41:43.079Z,14.03
2016-03-27T12:42:43.051Z,13.97
2016-03-27T12:43:43.053Z,14
2016-03-27T12:44:43.024Z,13.93
2016-03-27T12:45:42.996Z,13.9
2016-03-27T12:46:42.999Z,13.92
2016-03-27T12:47:42.971Z,13.77
2016-03-27T12:48:42.957Z,13.85
2016-03-27T12:49:42.930Z,13.87
2016-03-27T12:50:42.916Z,13.89
2016-03-27T12:51:42.887Z,13.85
2016-03-27T12:52:42.875Z,13.93
2016-03-27T12:53:42.862Z,13.96
2016-03-27T12:54:42.849Z,13.99
2016-03-27T12:55:42.820Z,14.04
2016-03-27T12:56:42.792Z,14.12
2016-03-27T12:57:42.779Z,14.14
2016-03-27T12:58:42.765Z,14.15
2016-03-27T12:59:42.737Z,14.14